Tiempo atmosférico en la estación meteorológica de Puerto De Leitariegos, Asturias (1550 m.)



Fecha
DESCASC
Temp. máxima en grados centígrados (hora)
DESCASC
Temp. mínima en grados centígrados (hora)
DESCASC
Temp. media en grados centígrados
DESCASC
Racha de viento máxima en m/sg (hora)
DESCASC
Velocidad máxima media en intervalos de 10 minutos(hora)
DESCASC
Precipitaciones diarias en mm
DESCASC
Precipitaciones de 00:00 a 06:00 en mm
DESCASC
Precipitaciones de 06:00 a 12:00 en mm
DESCASC
Precipitaciones de 12:00 a 18:00 en mm
DESCASC
Precipitaciones de 18:00 a 24:00 en mm
DESCASC
06-07-2020 15.6 (13:20) 9.7 (07:40) 12.7 7.78 (16:50) 6.11 (17:50) 0 0 0 0 0
05-07-2020 22.6 (11:30) 11.8 (07:10) 17.2 9.17 (16:10) 6.11 (16:40) 0 0 0 0 0
04-07-2020 20.9 (16:20) 7.5 (06:50) 14.2 9.72 (18:30) 5.28 (17:00) 0 0 0 0 0
03-07-2020 16.7 (16:50) 1.3 (06:20) 9 8.61 (18:30) 5.56 (17:40) 0 0 0 0 0
02-07-2020 13.2 (14:50) 5.5 (00:00) 9.3 10 (17:00) 6.39 (16:10) 0 0 0 0 0
01-07-2020 18.8 (13:20) 9.1 (00:00) 13.9 9.72 (17:50) 5.83 (17:50) 0 0 0 0 0
30-06-2020 21.9 (11:50) 10.4 (00:00) 16.1 7.22 (17:30) 5 (17:30) 0 0 0 0 0
29-06-2020 18.1 (17:20) 8.4 (00:00) 13.3 9.17 (17:40) 6.11 (16:50) 0 0 0 0 0
28-06-2020 16.6 (14:00) 7.4 (00:00) 12 7.22 (17:20) 4.17 (17:40) 0 0 0 0 0
27-06-2020 16.7 (16:50) 10.1 (00:00) 13.4 11.67 (15:10) 5 (08:50) 0 0 0 0 0
26-06-2020 17.3 (14:00) 10 (00:00) 13.6 8.61 (16:40) 4.72 (13:40) 0 0 0 0 0
25-06-2020 20.4 (11:30) 10 (00:00) 15.2 8.61 (17:20) 5.83 (17:20) 0.2 0 0.2 0 0
24-06-2020 26.7 (14:00) 11.2 (00:00) 19 10 (17:30) 5.83 (17:30) 7.6 0 0 2.4 5.2
23-06-2020 26 (18:10) 13 (00:00) 19.5 10.83 (15:50) 5.83 (15:50) 0 0 0 0 0
22-06-2020 24.3 (16:00) 8.3 (00:00) 16.3 7.22 (17:40) 5 (18:10) 0 0 0 0 0
21-06-2020 17.1 (19:10) 7.5 (00:00) 12.3 7.78 (19:30) 5 (12:00) 0 0 0 0 0
20-06-2020 19.4 (15:40) 6.1 (00:00) 12.7 11.94 (14:20) 4.72 (17:20) 0 0 0 0 0
19-06-2020 16.4 (16:50) 2.8 (00:00) 9.6 9.17 (17:50) 5 (19:00) 0 0 0 0 0
18-06-2020 13.1 (15:40) 3.9 (00:00) 8.5 8.06 (19:10) 5.56 (19:30) 0 0 0 0 0
17-06-2020 9.1 (14:40) 4.1 (00:00) 6.6 9.72 (03:40) 5.83 (03:40) 0.2 0.2 0 0 0
16-06-2020 10.7 (14:50) 5.6 (00:00) 8.1 10.56 (22:50) 6.11 (23:00) 2.2 0 0.8 0.2 1.2
15-06-2020 10.9 (16:20) 4.7 (00:00) 7.8 -- (--) -- (--) 0 0 0 0 0
14-06-2020 8.9 (16:50) 2.4 (00:00) 5.6 8.61 (19:40) 4.44 (20:00) 0 0 0 0 0
13-06-2020 8.2 (14:40) 4 (00:00) 6.1 13.33 (04:00) 7.22 (11:40) 0.6 0 0.2 0.4 0
12-06-2020 6.9 (18:00) 1.8 (00:00) 4.4 21.39 (00:30) 10.28 (04:00) 15 5.2 0.8 7.6 1.4
11-06-2020 7.7 (11:10) 1 (00:00) 4.3 21.67 (22:50) 10 (23:00) 4.6 0 0.2 2.2 2.2
10-06-2020 13.6 (14:40) 3 (00:00) 8.3 9.44 (15:50) 6.11 (17:30) -- -- -- 0 0

Gráficas

Temp. máximas Temp. mínimas Temp. medias Precipitaciones Rachas de viento máximas Velocidades máximas media en intervalos de 10 minutos

Datos horarios

Fecha y hora oficial Temperatura (ºC) Velocidad del viento (km/h) Dirección del viento Racha (km/h) Dirección de racha Precipitación (mm) Presión (hPa) Tendencia (hPa) Humedad (%)
2020-07-09 23:00:00 13.2 8 Sur 17 Noroeste 0 853.6 1 86
2020-07-09 22:00:00 13.3 14 Noroeste 26 Noroeste 0 853.1 0.4 92
2020-07-09 21:00:00 15 20 Noroeste 30 Noroeste 0 853.1 0.1 88
2020-07-09 20:00:00 16.3 21 Noroeste 32 Noroeste 0 852.6 -- 85
2020-07-09 19:00:00 18.5 22 Noroeste 32 Noroeste 0 852.7 -- 78
2020-07-09 18:00:00 19 22 Noroeste 33 Noroeste 0 853 -- 77
2020-07-09 17:00:00 19.2 23 Noroeste 34 Noroeste 0 853.2 -- 78
2020-07-09 16:00:00 19.6 21 Noroeste 27 Noroeste 0 853.3 -- 77
2020-07-09 15:00:00 19.5 19 Noroeste 27 Noroeste 0 853.5 -- 81
2020-07-09 14:00:00 20.7 16 Noroeste 22 Noroeste 0 853.4 0.5 76
2020-07-09 13:00:00 18.9 15 Noroeste 22 Noroeste 0 853.2 -- 78
2020-07-09 12:00:00 22.9 8 Sudeste 20 Sudeste 0 853 -- 43
2020-07-09 11:00:00 21.5 8 Sudeste 20 Sudeste 0 852.9 -- 46
2020-07-09 10:00:00 20.1 6 Sudeste 13 Sudeste 0 852.8 -- 52
2020-07-09 09:00:00 16.5 9 Sudeste 12 Sudeste 0 852.7 -- 62
2020-07-09 08:00:00 12.7 3 Noroeste 8 Noroeste 0 852.3 -- 72
2020-07-09 07:00:00 12.3 4 Noroeste 8 Noroeste 0 852 -- 69
2020-07-09 06:00:00 13.2 2 Noroeste 12 Sudeste 0 851.7 -- 66
2020-07-09 05:00:00 13.8 3 Sudoeste 11 Sudeste 0 851.6 -- 63
2020-07-09 04:00:00 15.3 5 Sudeste 12 Sur 0 851.5 -- 57
2020-07-09 03:00:00 15.8 8 Sur 14 Sur 0 851.6 -- 56
2020-07-09 02:00:00 14.4 3 Nordeste 19 Sudeste 0 852.1 -- 60
2020-07-09 01:00:00 14.7 12 Sur 18 Sur 0 852.4 -- 59
2020-07-09 00:00:00 14.2 13 Sudeste 25 Sudeste 0 852.6 -- 65
2020-07-08 23:00:00 12.6 7 Noroeste 18 Norte 0 851.8 -- 95
2020-07-08 22:00:00 14.1 5 Norte 14 Sur 0 851.2 -- 88
2020-07-08 21:00:00 14.2 3 Noroeste 21 Noroeste 0 851.1 -- 94
2020-07-08 20:00:00 14.4 4 Noroeste 23 Norte 0 850 -- 96
2020-07-08 19:00:00 14.9 18 Noroeste 25 Norte 0 849.8 -- 94
2020-07-08 18:00:00 15.4 18 Norte 26 Norte 0 850 -- 93
2020-07-08 17:00:00 17 19 Norte 27 Norte 0 850.3 -- 85
2020-07-08 16:00:00 17.8 19 Norte 30 Sudeste 0 850.4 -- 81
2020-07-08 15:00:00 26.9 17 Sudeste 31 Sudeste 0 850.2 -- 34
2020-07-08 14:00:00 25.7 15 Sudeste 25 Sudeste 0 850.4 -- 40
2020-07-08 13:00:00 23.5 14 Sur 29 Sur 0 850.7 -- 48
2020-07-08 12:00:00 23.6 18 Sudeste 32 Sur 0 850.6 -- 43
2020-07-08 11:00:00 22 22 Sudeste 31 Sudeste 0 850.5 -- 48
2020-07-08 10:00:00 20.8 14 Sudeste 21 Sudeste 0 850.6 -- 52
2020-07-08 09:00:00 18.4 9 Sudeste 20 Sur 0 850.5 -- 60
2020-07-08 08:00:00 15.3 9 Sudeste 13 Sudeste 0 850.4 -- 64
2020-07-08 07:00:00 15.1 9 Sur 14 Sur 0 850.4 -- 61
2020-07-08 06:00:00 15.5 9 Sur 15 Sur 0 850.4 -- 60
2020-07-08 05:00:00 15.3 4 Sudeste 13 Sudoeste 0 850.6 -- 62
2020-07-08 04:00:00 15.3 5 Sur 12 Sur 0 850.8 -- 62
2020-07-08 03:00:00 15.3 4 Oeste 13 Sudoeste 0 851.4 -- 66
2020-07-08 02:00:00 15.1 5 Sudeste 13 Sudeste 0 851.7 -- 81
2020-07-08 01:00:00 15.6 5 Sur 10 Sudoeste 0 851.7 -- 77
2020-07-08 00:00:00 15.8 5 Sur 12 Sur 0 851.9 -- 77
2020-07-07 23:00:00 15.9 3 Norte 6 Noroeste 0 851.8 -- 75
2020-07-07 22:00:00 17.2 4 Noroeste 12 Noroeste 0 851.5 -- 74
2020-07-07 21:00:00 18.9 9 Noroeste 18 Noroeste 0 851.5 -- 82
2020-07-07 20:00:00 19.1 18 Noroeste 23 Noroeste 0 851.3 -0.7 82
2020-07-07 19:00:00 19.8 18 Noroeste 24 Noroeste 0 851.5 -0.6 79
2020-07-07 18:00:00 20.9 17 Noroeste 25 Noroeste 0 851.7 -0.5 78
2020-07-07 17:00:00 21.2 17 Noroeste 23 Noroeste 0 852 -0.2 77
2020-07-07 16:00:00 21 16 Noroeste 24 Noroeste 0 852.1 -0.1 77
2020-07-07 15:00:00 21.4 18 Noroeste 27 Noroeste -- 852.2 0 73
2020-07-07 14:00:00 21.7 13 Noroeste 21 Sudeste 0 852.2 0.1 69
2020-07-07 13:00:00 24.3 11 Sudeste 21 Sudeste 0 852.2 0 56
2020-07-07 12:00:00 23 11 Sudeste 18 Sudeste 0 852.2 0.1 61
2020-07-07 11:00:00 21 8 Sudeste 17 Sudeste 0 852.1 0 66
2020-07-07 10:00:00 19.6 9 Sudeste 14 Sudeste 0 852.2 0 67
2020-07-07 09:00:00 17.2 7 Sudeste 11 Sudeste 0 852.1 -0.2 74
2020-07-07 08:00:00 12.7 10 Sudeste 12 Sudeste 0 852.1 -0.4 83
2020-07-07 07:00:00 13.2 8 Sudeste 10 Sudeste 0 852.2 -- 80
2020-07-07 06:00:00 12.9 8 Sudeste 11 Sudeste 0 852.3 -- 81
2020-07-07 05:00:00 13 7 Sudeste 10 Sudeste 0 852.5 -- 81
2020-07-07 04:00:00 13.6 8 Sudeste 9 Sur 0 852.9 -- 81
2020-07-07 03:00:00 14.1 8 Sur 13 Sur 0 853.4 -- 80
2020-07-07 02:00:00 14.2 6 Sur 13 Sur 0 853.7 -- 82
2020-07-07 01:00:00 14.2 5 Sudeste 15 Sur 0 853.8 -- 85
2020-07-07 00:00:00 14 9 Sur 14 Sur 0 854.1 -- 86
2020-07-06 23:00:00 12.3 3 Noroeste 9 Norte 0 854.1 -- 89
2020-07-06 22:00:00 11.6 9 Noroeste 17 Norte 0 854.1 -- 95
2020-07-06 21:00:00 12.2 13 Norte 23 Noroeste 0 854.1 -- 96
2020-07-06 20:00:00 12.8 18 Noroeste 27 Noroeste 0 854.3 -- 95
2020-07-06 19:00:00 14 20 Norte 27 Norte 0 854.5 -- 95
2020-07-06 18:00:00 14.7 21 Norte 28 Noroeste 0 854.9 -- 94
2020-07-06 17:00:00 14.4 21 Norte 28 Norte 0 855 -- 94
2020-07-06 16:00:00 14.6 20 Noroeste 27 Noroeste 0 855.2 -- 95
2020-07-06 15:00:00 15.1 19 Noroeste 25 Noroeste 0 855.3 -- 94
2020-07-06 14:00:00 14.8 19 Noroeste 25 Noroeste 0 855.5 -- 93
2020-07-06 13:00:00 14.6 19 Noroeste 24 Noroeste 0 855.6 -- 94
2020-07-06 12:00:00 14.1 17 Noroeste 24 Norte 0 855.5 -- 94
2020-07-06 11:00:00 13.6 15 Noroeste 21 Noroeste 0 855.3 -- 95
2020-07-06 10:00:00 12.8 14 Noroeste 20 Norte 0 855.2 -- 94
2020-07-06 09:00:00 13.9 4 Sudeste 15 Noroeste 0 855 -- 95
2020-07-06 08:00:00 10.1 8 Sudeste -- -- 0 855.1 -- 95
2020-07-06 07:00:00 10.1 3 Sur 21 Noroeste 0 854.9 -- 96
2020-07-06 06:00:00 11.2 15 Noroeste 21 Noroeste 0 854.9 -- 96
2020-07-06 05:00:00 11 14 Noroeste 18 Noroeste 0 855 -- 95
2020-07-06 04:00:00 11.8 3 Noroeste 6 Sudeste 0 855.4 -- 84
2020-07-06 03:00:00 11.8 0 Calma 5 Sudoeste 0 855.8 -- 84
2020-07-06 02:00:00 12 0 Calma 8 Norte 0 856.3 -- 88
2020-07-06 01:00:00 12.5 8 Noroeste 15 Norte 0 856.5 -- 95
2020-07-06 00:00:00 13.8 12 Noroeste 19 Noroeste 0 856.7 -- 95
2020-07-05 23:00:00 14.4 14 Noroeste 23 Noroeste 0 856.6 -- 95
2020-07-05 22:00:00 15.1 17 Noroeste 24 Noroeste 0 856.3 -- 94
2020-07-05 21:00:00 16.5 16 Noroeste 28 Noroeste 0 856.1 -- 89
2020-07-05 20:00:00 18.6 17 Noroeste 29 Noroeste 0 856.1 -- 81
2020-07-05 19:00:00 20.1 18 Noroeste 26 Noroeste 0 856.1 -- 75
2020-07-05 18:00:00 19 20 Noroeste 33 Noroeste 0 856.4 -- 77
2020-07-05 17:00:00 21.4 21 Noroeste 33 Noroeste 0 856.5 -- 70
2020-07-05 16:00:00 21.5 20 Noroeste 32 Noroeste 0 856.6 -- 69
2020-07-05 15:00:00 22.1 19 Noroeste 29 Noroeste 0 856.6 -- 67
2020-07-05 14:00:00 22 17 Noroeste 24 Noroeste 0 856.9 -- 68
2020-07-05 13:00:00 21.8 15 Noroeste 19 Noroeste 0 856.9 -- 64
2020-07-05 12:00:00 21.2 11 Noroeste 17 Noroeste 0 856.9 -- 62
2020-07-05 11:00:00 21.5 8 Sudeste 13 Sudeste 0 856.9 -- 54
2020-07-05 10:00:00 18.2 9 Sudeste 11 Sudeste 0 856.9 -- 62
2020-07-05 09:00:00 17 5 Sudeste 8 Sudeste 0 856.5 -- 65
2020-07-05 08:00:00 13.3 5 Sudeste 10 Noroeste 0 856.5 -- 76
2020-07-05 07:00:00 12 0 Calma 5 Noroeste 0 856.4 -- 75
2020-07-05 06:00:00 12.4 2 Noroeste 7 Sudeste 0 856.6 -- 74
2020-07-05 05:00:00 12.9 2 Sudeste 7 Sudeste 0 856.6 -- 71
2020-07-05 04:00:00 12.8 4 Sudeste 8 Sudeste 0 856.9 -- 73
2020-07-05 03:00:00 12.9 0 Calma 5 Sudeste 0 857.4 -- 75
2020-07-05 02:00:00 13.3 4 Sudeste 7 Sudeste 0 857.9 -- 77
2020-07-05 01:00:00 13.2 4 Sudeste 7 Noroeste 0 858 -- 69
2020-07-05 00:00:00 13.1 5 Noroeste 13 Noroeste 0 858.1 -- 72
2020-07-04 23:00:00 13.9 8 Noroeste 14 Noroeste 0 857.9 -- 76
2020-07-04 22:00:00 13.4 11 Noroeste 21 Noroeste 0 857.8 -- 88
2020-07-04 21:00:00 15.9 15 Noroeste 24 Noroeste 0 857.5 -- 81
2020-07-04 20:00:00 18.2 17 Noroeste 31 Noroeste 0 857.3 -- 67
2020-07-04 19:00:00 20.2 16 Noroeste 35 Noroeste 0 857.1 -- 59
2020-07-04 18:00:00 20.6 18 Noroeste 31 Noroeste 0 857.5 -- 54
2020-07-04 17:00:00 20.5 19 Noroeste 31 Noroeste 0 857.5 -- 53
2020-07-04 16:00:00 20.6 14 Noroeste 29 Noroeste 0 857.6 -- 55
2020-07-04 15:00:00 20.3 17 Noroeste 28 Noroeste 0 857.5 -- 56
2020-07-04 14:00:00 20.3 14 Noroeste 23 Noroeste 0 857.6 -- 53
2020-07-04 13:00:00 18.9 16 Noroeste 22 Noroeste 0 857.4 -- 49
2020-07-04 12:00:00 18.4 14 Noroeste 21 Noroeste 0 857.3 -- 42
2020-07-04 11:00:00 17.8 12 Noroeste 20 Noroeste 0 856.9 -- 30
2020-07-04 10:00:00 16.4 9 Norte 19 Noroeste 0 856.9 -- 39
2020-07-04 09:00:00 14.4 11 Norte 15 Noroeste 0 856.5 -- 43
2020-07-04 08:00:00 9.4 11 Noroeste 16 Norte 0 856.2 -- 40
2020-07-04 07:00:00 7.9 0 Calma 12 Noroeste 0 856 -- 29
2020-07-04 06:00:00 7.9 2 Noroeste 15 Noroeste 0 855.5 -- 46
2020-07-04 05:00:00 9.1 10 Noroeste 16 Noroeste 0 855.8 -- 38
2020-07-04 04:00:00 9.4 10 Noroeste 17 Noroeste 0 855.8 -- 38
2020-07-04 03:00:00 9.1 12 Noroeste 17 Noroeste 0 856 -- 53
2020-07-04 02:00:00 9.1 12 Noroeste 17 Noroeste 0 856.4 -- 42
2020-07-04 01:00:00 8.8 8 Noroeste 19 Oeste 0 856.5 -- 47
2020-07-04 00:00:00 9.4 15 Noroeste 19 Noroeste 0 856.4 -- 58
2020-07-03 23:00:00 9.5 15 Noroeste 17 Noroeste 0 856.1 -- 89
2020-07-03 22:00:00 10.1 10 Noroeste 20 Noroeste 0 855.5 -- 94
2020-07-03 21:00:00 11.8 14 Noroeste 25 Noroeste 0 855.4 -- 88
2020-07-03 20:00:00 14.2 20 Noroeste 27 Noroeste 0 855.2 -- 78
2020-07-03 19:00:00 15.8 18 Noroeste 31 Noroeste 0 855.1 -- 66
2020-07-03 18:00:00 16.2 18 Noroeste 31 Noroeste 0 855.2 -- 60
2020-07-03 17:00:00 16.5 18 Noroeste 26 Noroeste 0 855 -- 62
2020-07-03 16:00:00 16.5 16 Noroeste 24 Noroeste 0 855.1 -- 60
2020-07-03 15:00:00 15.2 16 Noroeste 28 Noroeste 0 855.1 -- 75
2020-07-03 14:00:00 13.9 17 Noroeste 26 Noroeste 0 855.1 -- 78
2020-07-03 13:00:00 12.8 15 Noroeste 23 Noroeste 0 854.9 -- 77
2020-07-03 12:00:00 10.6 16 Noroeste 25 Noroeste 0 854.7 -- 82
2020-07-03 11:00:00 11.3 4 Nordeste 16 Noroeste 0 854 -- 69
2020-07-03 10:00:00 9.2 9 Sudeste 14 Sudeste 0 853.7 -- 78
2020-07-03 09:00:00 6.1 9 Sudeste 13 Sudeste 0 853.5 -- 87
2020-07-03 08:00:00 1.8 9 Sudeste 11 Sudeste 0 853.4 -- 93
2020-07-03 07:00:00 2 6 Sudeste 10 Sur 0 853.3 -- 93
2020-07-03 06:00:00 1.7 0 Calma 11 Sudeste 0 853.2 -- 90
2020-07-03 05:00:00 2.1 4 Sudeste 13 Sur 0 853.1 -- 92
2020-07-03 04:00:00 2.5 7 Sudeste 11 Sur 0 853.1 -- 92
2020-07-03 03:00:00 4 7 Oeste 17 Noroeste 0 853.6 -- 89
2020-07-03 02:00:00 5.2 10 Noroeste 17 Noroeste 0 853.8 -- 93
2020-07-03 01:00:00 5.2 8 Norte 19 Oeste 0 853.9 -- 96
2020-07-03 00:00:00 5.6 12 Noroeste 19 Oeste 0 853.8 -- 96
2020-07-02 23:00:00 5.8 12 Noroeste 22 Noroeste 0 853.5 -- 96
2020-07-02 22:00:00 6.2 14 Noroeste 24 Noroeste 0 853.1 -- 96
2020-07-02 21:00:00 6.8 15 Noroeste 25 Noroeste 0 852.9 -- 96
2020-07-02 20:00:00 7.3 18 Noroeste 27 Oeste 0 852.6 -- 95
2020-07-02 19:00:00 8.2 15 Noroeste 31 Noroeste 0 852.4 -- 92
2020-07-02 18:00:00 8.8 14 Noroeste 35 Noroeste 0 852.3 -- 91
2020-07-02 17:00:00 9.9 22 Noroeste 36 Noroeste 0 852 -- 87
2020-07-02 16:00:00 11.8 22 Noroeste 35 Noroeste 0 851.8 -- 83
2020-07-02 15:00:00 12.8 19 Noroeste 35 Noroeste 0 851.7 -- 79
2020-07-02 14:00:00 11.9 19 Noroeste 33 Noroeste 0 851.7 -- 80
2020-07-02 13:00:00 9.8 15 Noroeste 23 Noroeste 0 851.5 -- 94
2020-07-02 12:00:00 8.1 13 Noroeste 21 Noroeste 0 851.1 -- 96
2020-07-02 11:00:00 7.7 15 Noroeste 21 Noroeste 0 850.7 -- 96
2020-07-02 10:00:00 7.5 13 Noroeste 19 Noroeste 0 850.1 -- 96
2020-07-02 09:00:00 7.4 10 Noroeste 15 Noroeste 0 849.9 -- 96
2020-07-02 08:00:00 7.8 10 Noroeste 14 Noroeste 0 849.5 -- 96
2020-07-02 07:00:00 8 8 Noroeste 17 Noroeste 0 849.3 -- 96
2020-07-02 06:00:00 8.5 10 Noroeste 15 Noroeste 0 849.2 -- 96
2020-07-02 05:00:00 9 10 Norte 15 Norte 0 849.2 -- 96
2020-07-02 04:00:00 9.2 6 Noroeste 19 Noroeste 0 849.4 -- 95
2020-07-02 03:00:00 10 13 Norte 29 Noroeste 0 849.7 -- 87
2020-07-02 02:00:00 10.5 13 Norte 29 Noroeste 0 850 -- 85
2020-07-02 01:00:00 9.6 10 Noroeste 28 Norte 0 850.3 -- 84
2020-07-02 00:00:00 10.4 8 Norte 18 Norte 0 850.3 -- 88
2020-07-01 23:00:00 11.2 8 Norte 18 Noroeste 0 850.1 -- 95
2020-07-01 22:00:00 12 9 Norte 17 Norte 0 849.8 -- 93
2020-07-01 21:00:00 13.2 11 Noroeste 18 Noroeste 0 849.6 -- 87
2020-07-01 20:00:00 13.8 12 Noroeste 30 Norte 0 849.6 -- 85
2020-07-01 19:00:00 14.9 15 Noroeste 29 Noroeste 0 849.5 -- 80
2020-07-01 18:00:00 16.3 18 Noroeste 35 Noroeste 0 849.8 -- 70
2020-07-01 17:00:00 17.9 17 Noroeste 27 Noroeste 0 849.6 -- 68
2020-07-01 16:00:00 16.6 11 Noroeste 30 Noroeste 0 849.7 -- 73
2020-07-01 15:00:00 15.9 14 Noroeste 29 Noroeste 0 849.6 -- 79
2020-07-01 14:00:00 18.1 14 Noroeste 28 Norte 0 849.2 -- 72
2020-07-01 13:00:00 18.2 14 Noroeste 24 Noroeste 0 849 -- 69
2020-07-01 12:00:00 17.5 14 Noroeste 22 Noroeste 0 848.8 -- 73
2020-07-01 11:00:00 16.7 13 Norte 27 Noroeste 0 848.5 -- 69
2020-07-01 10:00:00 16.4 13 Noroeste 26 Noroeste 0 848.5 -- 62
2020-07-01 09:00:00 14.2 5 Sudeste 10 Sudeste 0 848.2 -- 74
2020-07-01 08:00:00 9.5 5 Noroeste 9 Noroeste 0 848 -- 81
2020-07-01 07:00:00 9.5 7 Noroeste 11 Noroeste 0 847.9 -- 75
2020-07-01 06:00:00 9.9 5 Oeste 9 Oeste 0 847.7 -- 71
2020-07-01 05:00:00 10.1 4 Noroeste 13 Noroeste 0 847.8 -- 82
2020-07-01 04:00:00 10.8 7 Noroeste 12 Oeste 0 847.6 -- 73
2020-07-01 03:00:00 11.1 3 Noroeste 10 Norte 0 848 -- 93
2020-07-01 02:00:00 12.9 5 Noroeste 13 Noroeste 0 848.3 -- 88
2020-07-01 01:00:00 13.2 9 Noroeste 13 Noroeste 0 848.7 -- 90
2020-07-01 00:00:00 14.1 8 Noroeste 12 Noroeste 0 848.9 -- 94
2020-06-30 23:00:00 15.3 0 Calma 10 Norte 0 848.8 -- 88
2020-06-30 22:00:00 15.9 8 Norte 14 Noroeste 0 848.6 -- 93
2020-06-30 21:00:00 16.8 8 Sur 24 Sudeste 0 848.5 -- 75
2020-06-30 20:00:00 19.3 15 Noroeste 24 Noroeste 0 848.3 -- 85
2020-06-30 19:00:00 19.2 13 Noroeste 22 Noroeste 0 848.1 -- 85
2020-06-30 18:00:00 18.5 16 Noroeste 26 Noroeste 0 848.6 -- 81
2020-06-30 17:00:00 19.6 15 Noroeste 25 Noroeste 0 848.9 -- 78
2020-06-30 16:00:00 20.3 15 Noroeste 23 Noroeste 0 848.8 -- 77
2020-06-30 15:00:00 20.2 11 Noroeste 21 Noroeste 0 849.3 -- 74
2020-06-30 14:00:00 21.6 7 Noroeste 17 Noroeste 0 849.4 -- 60
2020-06-30 13:00:00 21 5 Sur 21 Oeste 0 849.5 -- 62
2020-06-30 12:00:00 21 8 Sudeste 21 Sudeste 0 849.6 -- 61
2020-06-30 11:00:00 20.2 14 Sudeste 21 Sudeste 0 849.7 -- 66
2020-06-30 10:00:00 18.3 12 Sudeste 15 Sudeste 0 849.9 -- 68
2020-06-30 09:00:00 16.2 8 Sudeste 11 Sudeste 0 849.9 -- 72
2020-06-30 08:00:00 12.2 9 Sudeste 10 Sudeste 0 849.8 -- 82
2020-06-30 07:00:00 11.2 6 Sudeste 9 Sudeste 0 849.8 -- 83
2020-06-30 06:00:00 11.1 6 Sudeste 8 Sudeste 0 849.8 -- 83
2020-06-30 05:00:00 11.6 5 Sudeste 7 Sudeste 0 850.1 -- 82
2020-06-30 04:00:00 11.6 3 Sudeste 11 Noroeste 0 850.7 -- 83
2020-06-30 03:00:00 11.3 9 Noroeste 13 Noroeste 0 851.1 -- 81
2020-06-30 02:00:00 11.1 10 Noroeste 13 Noroeste 0 851.5 -- 82
2020-06-30 01:00:00 10.7 7 Noroeste 14 Noroeste 0 851.9 -- 88
2020-06-30 00:00:00 10.7 12 Noroeste 15 Noroeste 0 852.2 -- 90
2020-06-29 23:00:00 11.1 13 Noroeste 20 Noroeste 0 852.1 -- 94
2020-06-29 22:00:00 12.4 15 Noroeste 24 Noroeste 0 852 -- 91
2020-06-29 21:00:00 15 18 Noroeste 25 Noroeste 0 852.2 -- 75
2020-06-29 20:00:00 16.7 17 Noroeste 27 Noroeste 0 852.1 -- 65
2020-06-29 19:00:00 17.6 18 Noroeste 29 Noroeste 0 852.4 -- 59
2020-06-29 18:00:00 17.9 21 Noroeste 33 Noroeste 0 852.5 -- 64
2020-06-29 17:00:00 17.9 20 Noroeste 31 Noroeste 0 852.7 -- 71
2020-06-29 16:00:00 17.7 20 Noroeste 30 Noroeste 0 852.8 -- 76
2020-06-29 15:00:00 17 19 Noroeste 31 Noroeste 0 852.9 -- 76
2020-06-29 14:00:00 16.3 19 Noroeste 27 Noroeste 0 853 -- 76
2020-06-29 13:00:00 16.2 15 Noroeste 22 Noroeste 0 853 -- 74
2020-06-29 12:00:00 15.3 15 Noroeste 21 Noroeste 0 852.8 -- 78
2020-06-29 11:00:00 14.5 11 Noroeste 17 Noroeste 0 852.7 -- 82
2020-06-29 10:00:00 14.5 6 Sudeste 12 Norte 0 852.6 -- 77
2020-06-29 09:00:00 11.5 8 Norte 13 Norte 0 852.5 -- 89
2020-06-29 08:00:00 8.4 2 Nordeste 10 Noroeste 0 852.3 -- 93
2020-06-29 07:00:00 9.3 6 Noroeste 12 Norte 0 852.4 -- 94
2020-06-29 06:00:00 9.1 8 Noroeste 14 Noroeste 0 852.2 -- 94
2020-06-29 05:00:00 9.7 7 Noroeste 13 Noroeste 0 852.4 -- 93
2020-06-29 04:00:00 9.5 8 Noroeste 11 Noroeste 0 852.6 -- 93
2020-06-29 03:00:00 10.4 8 Noroeste 12 Noroeste 0 852.7 -- 95
2020-06-29 02:00:00 11.5 5 Noroeste 11 Noroeste 0 853.1 -- 96
2020-06-29 01:00:00 11.9 6 Noroeste 10 Noroeste 0 853.4 -- 96
2020-06-29 00:00:00 12.2 5 Noroeste 12 Noroeste 0 853.6 -- 95
2020-06-28 23:00:00 12.1 6 Noroeste 12 Norte 0 853.6 -- 95
2020-06-28 22:00:00 12.3 10 Noroeste 17 Noroeste 0 853.5 -- 95
2020-06-28 21:00:00 13.1 10 Noroeste 15 Noroeste 0 853.5 -- 93
2020-06-28 20:00:00 13.7 8 Noroeste 15 Norte 0 853.5 -- 92
2020-06-28 19:00:00 14.2 11 Noroeste 21 Noroeste 0 853.6 -- 90
2020-06-28 18:00:00 15.6 14 Noroeste 26 Norte 0 853.6 -- 85
2020-06-28 17:00:00 15.5 13 Norte 20 Noroeste 0 853.5 -- 87
2020-06-28 16:00:00 16 11 Norte 24 Noroeste 0 853.6 0.1 87
2020-06-28 15:00:00 16.1 10 Norte 24 Noroeste 0 853.5 -- 81
2020-06-28 14:00:00 16.6 10 Norte 21 Noroeste 0 853.5 -- 78
2020-06-28 13:00:00 15.2 11 Noroeste 20 Noroeste 0 853.5 -- 82
2020-06-28 12:00:00 15.7 10 Noroeste 18 Norte 0 853.3 -- 74
2020-06-28 11:00:00 15.2 6 Nordeste 13 Sudeste 0 853.2 -- 77
2020-06-28 10:00:00 13.1 5 Noroeste 18 Norte 0 853.3 -- 81
2020-06-28 09:00:00 10.6 3 Sudeste 6 Sudeste 0 852.9 -- 86
2020-06-28 08:00:00 8.5 0 Calma 5 Oeste 0 852.5 -- 89
2020-06-28 07:00:00 7.5 2 Noroeste 8 Norte 0 852.1 -- 89
2020-06-28 06:00:00 8.2 6 Noroeste 10 Norte 0 852 -- 92
2020-06-28 05:00:00 8.8 2 Sudoeste 8 Sur 0 852 -- 89
2020-06-28 04:00:00 9.2 3 Sudeste 13 Sudoeste 0 852 -- 89
2020-06-28 03:00:00 9.1 4 Nordeste 13 Sudeste 0 852 -- 89
2020-06-28 02:00:00 9.4 7 Sur 13 Sudeste 0 852.2 -- 86
2020-06-28 01:00:00 8.9 0 Calma 9 Oeste 0 852.3 -- 89
2020-06-28 00:00:00 10.1 7 Noroeste 15 Oeste 0 852.3 -- 85
2020-06-27 23:00:00 10.8 4 Oeste 15 Noroeste 0 852.1 -- 85
2020-06-27 22:00:00 12.8 9 Norte 22 Noroeste 0 851.7 -- 82
2020-06-27 21:00:00 14.5 11 Noroeste 32 Noroeste 0 851.5 -- 74
2020-06-27 20:00:00 15.2 12 Noroeste 34 Noroeste 0 851.5 -- 70
2020-06-27 19:00:00 15.8 7 Sudeste 19 Sudeste 0 851.3 -- 71
2020-06-27 18:00:00 15.7 5 Sudeste 26 Noroeste 0 851.5 -- 78
2020-06-27 17:00:00 15.9 8 Noroeste 23 Oeste 0 851.4 -- 74
2020-06-27 16:00:00 15.7 5 Norte 42 Oeste 0 851.4 -- 72
2020-06-27 15:00:00 15.3 6 Este 33 Noroeste 0 851.2 -- 80
2020-06-27 14:00:00 14.2 14 Norte 26 Noroeste 0 851.3 -- 84
2020-06-27 13:00:00 12.8 8 Sudeste 18 Sudeste 0 851 -- 89
2020-06-27 12:00:00 12.7 9 Sudeste 19 Sudeste 0 850.7 -- 89
2020-06-27 11:00:00 12.6 12 Norte 21 Norte 0 850.4 -- 85
2020-06-27 10:00:00 13.2 10 Noroeste 33 Noroeste 0 850.2 -- 82
2020-06-27 09:00:00 12.7 13 Norte 40 Noroeste 0 849.5 -- 81
2020-06-27 08:00:00 11 6 Este 14 Noroeste 0 849.3 -- 92
2020-06-27 07:00:00 10.8 4 Sur 30 Norte 0 849.1 -- 89
2020-06-27 06:00:00 11.2 5 Noroeste 30 Norte 0 849.1 -- 85
2020-06-27 05:00:00 11.2 15 Noroeste 33 Noroeste 0 849.1 -- 84
2020-06-27 04:00:00 11.3 8 Oeste 31 Noroeste 0 848.9 -- 83
2020-06-27 03:00:00 11 12 Oeste 28 Oeste 0 849.1 -- 83
2020-06-27 02:00:00 11.4 7 Sudoeste 23 Sudoeste 0 849.2 -- 84
2020-06-27 01:00:00 11.7 7 Norte 29 Noroeste 0 849.3 -- 82
2020-06-27 00:00:00 12.3 5 Nordeste 20 Noroeste 0 849.2 -- 80
2020-06-26 23:00:00 12.4 8 Noroeste 26 Noroeste 0 848.8 -- 81
2020-06-26 22:00:00 12.8 10 Norte 24 Norte 0 848.6 -- 80
2020-06-26 21:00:00 13.3 11 Noroeste 28 Noroeste 0 848.6 -- 77
2020-06-26 20:00:00 14.2 6 Noroeste 24 Norte 0 848.6 -- 75
2020-06-26 19:00:00 14.8 8 Noroeste 23 Noroeste 0 848.3 -- 76
2020-06-26 18:00:00 16.2 8 Norte 21 Norte 0 848.2 -- 67
2020-06-26 17:00:00 16 11 Norte 31 Noroeste 0 848.3 -- 69
2020-06-26 16:00:00 15.2 10 Noroeste 22 Noroeste 0 848.5 -- 69
2020-06-26 15:00:00 16.8 11 Noroeste 26 Noroeste 0 848.4 -- 69
2020-06-26 14:00:00 17.1 15 Noroeste 24 Noroeste 0 848.3 -- 66
2020-06-26 13:00:00 16.6 13 Noroeste 29 Noroeste 0 848.1 -- 61
2020-06-26 12:00:00 16.8 8 Oeste 18 Sudoeste 0 847.9 -- 56
2020-06-26 11:00:00 15.4 9 Sudeste 22 Sudeste 0 847.9 -- 70
2020-06-26 10:00:00 14.7 8 Sudeste 16 Sudeste 0 847.9 -- 73
2020-06-26 09:00:00 12.5 13 Sudeste 24 Sur 0 847.7 -- 84
2020-06-26 08:00:00 10.3 7 Sur 12 Sur 0 847.9 -- 93
2020-06-26 07:00:00 10.8 8 Sur 15 Sudeste 0 847.9 -- 95
2020-06-26 06:00:00 10.8 9 Sudeste 16 Sudeste 0 847.8 -- 96
2020-06-26 05:00:00 10.9 9 Sudeste 15 Sudeste 0 847.8 -- 96
2020-06-26 04:00:00 11.1 7 Sudeste 13 Sudeste 0 848.2 -- 96
2020-06-26 03:00:00 11.1 2 Este 12 Norte 0 848.7 -- 96
2020-06-26 02:00:00 11.2 10 Norte 15 Norte 0 849.1 -- 96
2020-06-26 01:00:00 11.3 12 Norte 15 Noroeste 0 849.5 -- 96
2020-06-26 00:00:00 10 9 Norte 15 Noroeste 0 849.7 -- 95
2020-06-25 23:00:00 11.2 4 Noroeste 13 Noroeste 0 849.8 -- 96
2020-06-25 22:00:00 12.4 9 Noroeste 19 Noroeste 0 849.5 -- 96
2020-06-25 21:00:00 13.4 8 Noroeste 24 Noroeste 0 849.5 -- 96
2020-06-25 20:00:00 13 17 Noroeste 30 Noroeste 0 849.2 -- 95
2020-06-25 19:00:00 15.4 17 Noroeste 27 Noroeste 0 849.1 -- 90
2020-06-25 18:00:00 15.8 18 Noroeste 31 Noroeste 0 849.1 -- 86
2020-06-25 17:00:00 17.5 16 Noroeste 30 Noroeste 0 849.5 -- 80
2020-06-25 16:00:00 18 17 Noroeste 25 Noroeste 0 849.3 -- 78
2020-06-25 15:00:00 19.3 17 Noroeste 27 Noroeste 0 849.6 -- 72
2020-06-25 14:00:00 17.5 16 Noroeste 21 Noroeste 0 849.7 -- 72
2020-06-25 13:00:00 18.5 13 Noroeste 25 Noroeste 0 850 -- 67
2020-06-25 12:00:00 17.2 16 Noroeste 26 Noroeste 0 850 -- 75
2020-06-25 11:00:00 19.3 11 Sudeste 19 Sudeste 0 849.8 -- 60
2020-06-25 10:00:00 16.1 7 Sur 15 Sudeste 0 850 -- 66
2020-06-25 09:00:00 15.5 11 Sudeste 18 Sur 0 849.8 -- 69
2020-06-25 08:00:00 12.5 12 Sur 20 Sur 0 850 -- 74
2020-06-25 07:00:00 12.5 7 Sur 13 Sudeste 0.2 850.1 -- 77
2020-06-25 06:00:00 12.5 3 Sudeste 9 Sudoeste 0 849.7 -- 70
2020-06-25 05:00:00 12.5 4 Sur 9 Sur 0 849.9 -- 70
2020-06-25 04:00:00 12.1 3 Norte 10 Sur 0 850.3 -- 71
2020-06-25 03:00:00 12.3 5 Sudeste 15 Sur 0 850.7 -- 68
2020-06-25 02:00:00 12 8 Sur 14 Sur 0 851.1 -- 72
2020-06-25 01:00:00 11.6 7 Sudeste 14 Sur 0 851.5 -- 77
2020-06-25 00:00:00 11.5 12 Sur 27 Sudoeste 0 851.9 -- 83
2020-06-24 23:00:00 11.8 12 Sur 32 Sur 0 852 -- 83
2020-06-24 22:00:00 11.7 16 Sudeste 32 Sur 1.8 852.4 -- 84
2020-06-24 21:00:00 11.9 18 Sudeste 29 Sudeste 3 854 -- 91
2020-06-24 20:00:00 13.2 10 Sur 27 Sudeste 0.2 853.3 -- 84
2020-06-24 19:00:00 14.1 11 Sudeste 28 Sudeste 0.2 851.5 -- 73
2020-06-24 18:00:00 15.9 2 Este 36 Oeste 0.2 852 -- 81
2020-06-24 17:00:00 17.9 6 Sudoeste 23 Noroeste 0 850.7 -- 73
2020-06-24 16:00:00 19.2 8 Oeste 27 Noroeste 2.2 850.7 -- 78
2020-06-24 15:00:00 21.2 19 Noroeste 30 Noroeste 0 850.4 -- 67
2020-06-24 14:00:00 26.1 8 Oeste 26 Sudeste 0 850.7 -- 51
2020-06-24 13:00:00 25.3 12 Sudeste 20 Sudeste 0 850.7 -- 36
2020-06-24 12:00:00 24.4 12 Sudeste 18 Sudeste 0 850.7 -- 43
2020-06-24 11:00:00 23.1 11 Sudeste 17 Sudeste 0 850.8 -- 41
2020-06-24 10:00:00 21.2 12 Sudeste 18 Sudeste 0 851 -- 46
2020-06-24 09:00:00 19.1 8 Sudeste 13 Sudeste 0 851 -- 55
2020-06-24 08:00:00 15.4 5 Sudeste 14 Sur 0 851 -- 59
2020-06-24 07:00:00 15.7 10 Sur 16 Sur 0 850.9 -- 58
2020-06-24 06:00:00 15.8 12 Sur 18 Sur 0 850.9 -- 59
2020-06-24 05:00:00 15.3 8 Sur 15 Sudoeste 0 851.1 -- 63
2020-06-24 04:00:00 15.3 4 Sudeste 14 Sudoeste 0 851.2 -- 63
2020-06-24 03:00:00 15.3 8 Sur 16 Sur 0 851.6 -- 65
2020-06-24 02:00:00 14.9 2 Este 6 Sudeste 0 851.8 -- 69
2020-06-24 01:00:00 15.2 0 Calma 8 Noroeste 0 852 -- 67
2020-06-24 00:00:00 16.1 3 Noroeste 14 Noroeste 0 852.1 -- 66
2020-06-23 23:00:00 16.7 4 Noroeste 11 Noroeste 0 852 -- 65
2020-06-23 22:00:00 18.2 6 Noroeste 14 Noroeste 0 851.4 -- 62
2020-06-23 21:00:00 22.2 10 Noroeste 24 Noroeste 0 851.3 -- 54
2020-06-23 20:00:00 23.2 15 Noroeste 26 Noroeste 0 851.1 -- 52
2020-06-23 19:00:00 22.5 14 Noroeste 23 Noroeste 0 851.2 -- 53
2020-06-23 18:00:00 25.8 8 Oeste 22 Noroeste 0 851.3 -- 33
2020-06-23 17:00:00 24.5 12 Noroeste 33 Este 0 851.6 -- 37
2020-06-23 16:00:00 25.3 19 Sudeste 39 Sudeste 0 851.9 -- 27
2020-06-23 15:00:00 24.5 10 Noroeste 32 Norte 0 852.2 -- 38
2020-06-23 14:00:00 24.6 11 Norte 30 Noroeste 0 852.4 -- 34
2020-06-23 13:00:00 25 9 Sudeste 19 Sudeste 0 852.7 -- 40
2020-06-23 12:00:00 23.2 10 Sudeste 14 Sur 0 852.7 -- 42
2020-06-23 11:00:00 21.6 11 Sudeste 15 Sudeste 0 852.9 -- 41
2020-06-23 10:00:00 20.4 11 Sudeste 15 Sudeste 0 853.1 -- 43
2020-06-23 09:00:00 18.6 7 Sudeste 13 Sur 0 853.1 -- 48
2020-06-23 08:00:00 15.4 10 Sur -- -- 0 852.9 -- 56
2020-06-23 07:00:00 14.1 9 Sur 14 Sur 0 852.9 -- 60
2020-06-23 06:00:00 13.9 7 Sur 12 Sur 0 853 -- 60
2020-06-23 05:00:00 13.3 5 Sudeste 14 Sudeste 0 853.2 -- 62
2020-06-23 04:00:00 13.4 5 Sudeste 16 Sur 0 853.8 -- 59
2020-06-23 03:00:00 14.4 7 Sur 14 Sudeste 0 854.4 -- 55
2020-06-23 02:00:00 14.8 10 Sur 15 Sur 0 854.7 -- 63
2020-06-23 01:00:00 14 4 Sudeste 12 Sur 0 854.9 -- 71
2020-06-23 00:00:00 14.5 2 Este 5 Norte 0 855.2 -- 75
2020-06-22 23:00:00 15.1 2 Norte 11 Noroeste 0 855 -- 75
2020-06-22 22:00:00 15.6 10 Noroeste 16 Noroeste 0 854.7 -- 82
2020-06-22 21:00:00 18.3 13 Noroeste 19 Noroeste 0 854.8 -- 76
2020-06-22 20:00:00 20 16 Noroeste 24 Noroeste 0 854.9 -- 71
2020-06-22 19:00:00 21.7 15 Noroeste 25 Noroeste 0 855 -- 63
2020-06-22 18:00:00 22.2 16 Noroeste 26 Noroeste 0 855.4 -- 58
2020-06-22 17:00:00 22.8 15 Noroeste 23 Noroeste 0 855.8 -- 56
2020-06-22 16:00:00 23.6 7 Nordeste 23 Sudeste 0 856.2 -- 54
2020-06-22 15:00:00 23.7 12 Sur 24 Sudeste 0 856.7 -- 35
2020-06-22 14:00:00 23.2 11 Sur 26 Sudeste 0 857 -- 40
2020-06-22 13:00:00 22.4 12 Sur 23 Sudeste 0 857.1 -- 45
2020-06-22 12:00:00 21.5 10 Sudeste 20 Sudeste 0 857.1 -- 45
2020-06-22 11:00:00 20 11 Sudeste 18 Sudeste 0 857.1 -- 47
2020-06-22 10:00:00 18.6 9 Sudeste 15 Sudeste 0 857.3 -- 49
2020-06-22 09:00:00 15.6 5 Sudeste 10 Sudeste 0 857.4 -- 59
2020-06-22 08:00:00 9.9 8 Sudeste 9 Sudeste 0 857.5 -- 72
2020-06-22 07:00:00 9.8 5 Sudeste 8 Sudeste 0 857.4 -- 69
2020-06-22 06:00:00 9 3 Este 9 Sudeste 0 857.8 -- 72
2020-06-22 05:00:00 9.2 0 Calma 5 Sur 0 858 -- 72
2020-06-22 04:00:00 9.1 0 Calma 6 Sudeste 0 858.2 -- 76
2020-06-22 03:00:00 9.1 5 Sudeste 9 Sudeste 0 858.5 -- 76
2020-06-22 02:00:00 8.7 2 Sudeste 6 Norte 0 858.8 -- 82
2020-06-22 01:00:00 8.7 3 Sudeste 12 Noroeste 0 859 -- 69
2020-06-22 00:00:00 9.4 8 Noroeste 12 Noroeste 0 859.1 -- 86
2020-06-21 23:00:00 11.2 10 Noroeste 19 Noroeste 0 859 -- 91
2020-06-21 22:00:00 12.6 12 Noroeste 18 Noroeste 0 858.5 -- 90
2020-06-21 21:00:00 13.4 -- -- -- -- 0 858.3 -- 87
2020-06-21 20:00:00 14.5 14 Noroeste 28 Noroeste 0 858.1 -- 82
2020-06-21 19:00:00 17 15 Noroeste 26 Noroeste 0 858.2 -- 73
2020-06-21 18:00:00 14.7 17 Noroeste 23 Noroeste 0 858.4 -- 80
2020-06-21 17:00:00 15.4 13 Noroeste 20 Noroeste 0 858.4 -- 79
2020-06-21 16:00:00 15.2 11 Noroeste 23 Noroeste 0 858.4 -- 77
2020-06-21 15:00:00 16.2 13 Noroeste 22 Noroeste 0 858.3 -- 75
2020-06-21 14:00:00 16.3 12 Noroeste 28 Noroeste 0 858.2 -- 74
2020-06-21 13:00:00 16.6 12 Noroeste 24 Noroeste 0 857.7 -- 71
2020-06-21 12:00:00 14.8 18 Noroeste 25 Noroeste 0 857.6 -- 74
2020-06-21 11:00:00 15.1 14 Noroeste 22 Noroeste 0 857.4 -- 65
2020-06-21 10:00:00 13.8 11 Noroeste 21 Noroeste 0 857.1 -- 62
2020-06-21 09:00:00 13.2 13 Noroeste 17 Noroeste 0 856.6 -- 60
2020-06-21 08:00:00 9.3 12 Noroeste 19 Noroeste 0 856.1 -- 65
2020-06-21 07:00:00 8.9 10 Noroeste 20 Noroeste 0 855.8 -- 63
2020-06-21 06:00:00 9 7 Noroeste 12 Noroeste 0 855.6 -- 66
2020-06-21 05:00:00 8 3 Norte 9 Norte 0 855.6 -- 65
2020-06-21 04:00:00 8.9 5 Noroeste 12 Oeste 0 855.8 -- 47
2020-06-21 03:00:00 8.2 4 Sudeste 8 Sur 0 856 -- 65
2020-06-21 02:00:00 7.9 3 Norte 12 Norte 0 856.4 -- 67
2020-06-21 01:00:00 9.6 6 Noroeste 18 Noroeste 0 856.4 -- 65
2020-06-21 00:00:00 10 10 Noroeste 20 Oeste 0 856.3 -- 50
2020-06-20 23:00:00 10.3 4 Oeste 15 Noroeste 0 856.2 -- 83
2020-06-20 22:00:00 11.2 6 Noroeste 16 Noroeste 0 855.7 -- 77
2020-06-20 21:00:00 14.8 12 Noroeste 29 Noroeste 0 855.5 -- 63
2020-06-20 20:00:00 16.4 17 Noroeste 27 Noroeste 0 855.3 -- 63
2020-06-20 19:00:00 17.3 13 Noroeste 26 Noroeste 0 855.1 -- 64
2020-06-20 18:00:00 17.5 14 Noroeste 28 Noroeste 0 855.1 -- 68
2020-06-20 17:00:00 18.3 16 Noroeste 28 Noroeste 0 854.9 -- 65
2020-06-20 16:00:00 19 12 Noroeste 25 Norte 0 855 -- 60
2020-06-20 15:00:00 18.8 12 Nordeste 43 Sur 0 854.7 -- 47
2020-06-20 14:00:00 18.6 6 Este 31 Sudeste 0 854.8 -- 44
2020-06-20 13:00:00 17.7 8 Sudeste 27 Sudeste 0 854.6 -- 51
2020-06-20 12:00:00 16.3 9 Sudeste 23 Sudeste 0 854.5 -- 59
2020-06-20 11:00:00 14.4 12 Sudeste 19 Sudeste 0 854.4 -- 68
2020-06-20 10:00:00 12.8 12 Sudeste 18 Sudeste 0 854.2 -- 72
2020-06-20 09:00:00 11.1 10 Sudeste 14 Sudeste 0 853.9 -- 82
2020-06-20 08:00:00 7.1 4 Sudeste 12 Sur 0 853.6 -- 91
2020-06-20 07:00:00 6.5 -- -- -- -- 0 853.5 -- 91
2020-06-20 06:00:00 6.3 3 Este 8 Sur 0 853.5 -- 88
2020-06-20 05:00:00 6.2 2 Noroeste 9 Sudoeste 0 853.5 -- 85
2020-06-20 04:00:00 7.6 5 Sudoeste 19 Oeste 0 853.5 -- 76
2020-06-20 03:00:00 6.8 2 Noroeste 12 Sudoeste 0 853.6 -- 83
2020-06-20 02:00:00 6.8 2 Norte 6 Sudoeste 0 853.8 -- 89
2020-06-20 01:00:00 7.6 2 Norte 6 Sudoeste 0 854 -- 88
2020-06-20 00:00:00 10 3 Oeste 13 Noroeste 0 854 -- 91
2020-06-19 23:00:00 10.4 5 Noroeste 12 Noroeste 0 853.8 -- 93
2020-06-19 22:00:00 10.8 6 Noroeste 13 Noroeste 0 853.2 -- 87
2020-06-19 21:00:00 12.3 11 Noroeste 25 Noroeste 0 852.9 -- 81
2020-06-19 20:00:00 14.4 16 Noroeste 28 Noroeste 0 852.6 -- 69
2020-06-19 19:00:00 13.5 18 Noroeste 32 Noroeste 0 852.4 -- 66
2020-06-19 18:00:00 15.8 14 Noroeste 33 Noroeste 0 852 -- 54
2020-06-19 17:00:00 15 10 Noroeste 28 Noroeste 0 852.1 -- 57
2020-06-19 16:00:00 16.1 15 Noroeste 28 Noroeste 0 851.9 -- 59
2020-06-19 15:00:00 15.3 15 Noroeste 27 Noroeste 0 851.5 -- 65
2020-06-19 14:00:00 14.8 16 Noroeste 23 Norte 0 851.4 -- 67
2020-06-19 13:00:00 13.9 14 Noroeste 19 Noroeste 0 851.2 -- 67
2020-06-19 12:00:00 13.2 12 Noroeste 17 Sudeste 0 850.9 -- 71
2020-06-19 11:00:00 11.8 10 Sudeste 17 Sudeste 0 850.6 -- 63
2020-06-19 10:00:00 9.9 9 Sudeste 13 Sudeste 0 850.5 -- 75
2020-06-19 09:00:00 7.5 7 Sudeste 10 Sudeste 0 850.1 -- 87
2020-06-19 08:00:00 3.3 5 Sur 10 Sudeste 0 849.6 -- 94
2020-06-19 07:00:00 3.4 7 Sur 10 Sur 0 849.4 -- 93
2020-06-19 06:00:00 3.3 6 Noroeste 13 Norte 0 849.3 -- 95
2020-06-19 05:00:00 4.3 0 Calma 16 Noroeste 0 849.2 -- 95
2020-06-19 04:00:00 3.8 4 Noroeste 9 Norte 0 849.2 -- 89
2020-06-19 03:00:00 4.7 5 Sur 9 Sudeste 0 849.5 -- 90
2020-06-19 02:00:00 6.3 4 Noroeste 13 Noroeste 0 849.9 -- 95
2020-06-19 01:00:00 6.9 8 Norte 14 Noroeste 0 850 -- 96
2020-06-19 00:00:00 7 10 Noroeste 17 Noroeste 0 849.9 -- 95
2020-06-18 23:00:00 7.4 11 Noroeste 20 Noroeste 0 849.5 -- 95
2020-06-18 22:00:00 7.8 12 Noroeste 21 Norte 0 848.9 -- 95
2020-06-18 21:00:00 8.4 13 Noroeste -- -- 0 848.6 -- 94
2020-06-18 20:00:00 8.7 16 Noroeste 29 Noroeste 0 848.4 -- 89
2020-06-18 19:00:00 9.4 17 Noroeste 27 Noroeste 0 848.1 -- 88
2020-06-18 18:00:00 10.6 16 Noroeste 26 Noroeste 0 848.1 -- 82
2020-06-18 17:00:00 11.2 13 Noroeste 24 Noroeste 0 848.1 -- 72
2020-06-18 16:00:00 11.6 13 Noroeste 25 Noroeste 0 848.2 -- 70
2020-06-18 15:00:00 11.8 13 Noroeste 25 Noroeste 0 848.1 -- 73
2020-06-18 14:00:00 11.6 11 Noroeste 26 Noroeste 0 848 -- 70
2020-06-18 13:00:00 11.9 14 Noroeste 23 Noroeste 0 848 -- 73
2020-06-18 12:00:00 10.5 15 Noroeste 25 Noroeste 0 847.8 -- 81
2020-06-18 11:00:00 10.3 12 Noroeste 19 Noroeste 0 847.4 -- 85
2020-06-18 10:00:00 5.9 9 Sudeste 12 Sudeste 0 847.2 -- 88
2020-06-18 09:00:00 5.3 7 Sur 10 Sudeste 0 847 -- 90
2020-06-18 08:00:00 5 4 Sudeste 10 Noroeste 0 846.8 -- 92
2020-06-18 07:00:00 4.2 4 Noroeste 7 Norte 0 846.7 -- 93
2020-06-18 06:00:00 4.5 3 Sur 10 Noroeste 0 846.6 -- 92
2020-06-18 05:00:00 4.9 8 Noroeste 15 Noroeste 0 847 -- 94
2020-06-18 04:00:00 5.1 10 Noroeste 16 Noroeste 0 847.4 -- 94
2020-06-18 03:00:00 5.2 9 Noroeste 13 Noroeste 0 847.6 -- 95
2020-06-18 02:00:00 4.7 8 Noroeste 14 Noroeste 0 847.8 -- 94
2020-06-18 01:00:00 4.9 3 Noroeste 10 Noroeste 0 848.1 -- 92
2020-06-18 00:00:00 5.2 4 Noroeste 10 Norte 0 848.5 -- 93
2020-06-17 23:00:00 5.9 7 Noroeste 18 Norte 0 848.7 -- 95
2020-06-17 22:00:00 6 11 Noroeste 18 Noroeste 0 848.3 -- 95
2020-06-17 21:00:00 6.6 10 Noroeste 25 Noroeste 0 848.1 -- 95
2020-06-17 20:00:00 7 12 Noroeste 26 Noroeste 0 848.3 -- 93
2020-06-17 19:00:00 6.9 14 Noroeste 22 Noroeste 0 848.5 -- 93
2020-06-17 18:00:00 7.5 14 Noroeste 21 Noroeste 0 848.6 -- 93
2020-06-17 17:00:00 7.9 11 Noroeste 15 Noroeste 0 849 -- 92
2020-06-17 16:00:00 7.9 9 Noroeste 18 Noroeste 0 849.2 -- 90
2020-06-17 15:00:00 7.8 14 Noroeste 19 Noroeste 0 849.3 -- 86
2020-06-17 14:00:00 8.8 11 Noroeste 17 Noroeste 0 849.3 -- 85
2020-06-17 13:00:00 7.9 9 Noroeste 15 Noroeste 0 849.4 -- 82
2020-06-17 12:00:00 7.5 8 Noroeste -- -- 0 849.3 -- 85
2020-06-17 11:00:00 7.1 10 Noroeste 15 Noroeste 0 849.3 -- 87
2020-06-17 10:00:00 5.6 7 Norte 13 Noroeste 0 849.4 -- 94
2020-06-17 09:00:00 5.1 7 Noroeste 16 Noroeste 0 849.3 -- 96
2020-06-17 08:00:00 4.7 11 Noroeste 30 Noroeste 0 849.1 -- 96
2020-06-17 07:00:00 4.5 8 Noroeste 13 Noroeste 0 849 -- 96
2020-06-17 06:00:00 4.3 9 Noroeste 21 Norte 0 848.7 -- 96
2020-06-17 05:00:00 4.7 13 Noroeste 24 Noroeste 0 849.2 -- 96
2020-06-17 04:00:00 4.7 18 Noroeste 35 Noroeste 0 849.6 -- 96
2020-06-17 03:00:00 5.2 10 Noroeste 21 Noroeste 0 850.1 -- 96
2020-06-17 02:00:00 5.2 10 Noroeste 22 Noroeste 0.2 850.5 -- 96
2020-06-17 01:00:00 5.4 17 Noroeste 26 Noroeste 0 850.9 -- 95
2020-06-17 00:00:00 5.6 13 Norte 36 Noroeste 0 851.1 -- 95
2020-06-16 23:00:00 5.7 22 Noroeste 38 Noroeste 0.6 850.9 -- 95
2020-06-16 22:00:00 6 19 Noroeste 30 Noroeste 0.6 850.6 -- 95
2020-06-16 21:00:00 6.5 14 Noroeste 27 Noroeste 0 850.6 -- 93
2020-06-16 20:00:00 7 15 Noroeste 28 Norte 0 850.6 -- 88
2020-06-16 19:00:00 7.5 16 Noroeste 28 Noroeste 0 850.6 -- 90
2020-06-16 18:00:00 7.4 15 Noroeste 30 Noroeste 0 850.8 -- 91
2020-06-16 17:00:00 7.7 20 Noroeste 31 Noroeste 0 850.9 -- 92
2020-06-16 16:00:00 9.6 19 Noroeste 34 Noroeste 0 850.8 -- 81
2020-06-16 15:00:00 10.1 20 Noroeste 33 Norte 0 850.9 -- 83
2020-06-16 14:00:00 10.2 15 Noroeste 31 Norte 0.2 850.8 -- 83
2020-06-16 13:00:00 8.7 18 Norte 33 Norte 0 850.6 -- 91
2020-06-16 12:00:00 9.4 12 Noroeste 27 Noroeste 0 850.4 -- 92
2020-06-16 11:00:00 8.6 10 Noroeste 22 Noroeste 0 850.5 -- 92
2020-06-16 10:00:00 7.8 11 Norte 18 Noroeste 0 850.6 -- 94
2020-06-16 09:00:00 7.2 6 Norte 20 Nordeste 0 850.5 -- 93
2020-06-16 08:00:00 6.7 8 Sudeste 17 Sudeste 0.6 850.5 -- 93
2020-06-16 07:00:00 6.4 8 Sudoeste 19 Sudeste 0.2 850.5 -- 91
2020-06-16 06:00:00 6.3 9 Sur 17 Sudoeste 0 850.6 -- 93
2020-06-16 05:00:00 6.3 3 Noroeste 22 Oeste 0 850.9 -- 90
2020-06-16 04:00:00 6.5 8 Oeste 17 Sudoeste 0 851.5 -- 88
2020-06-16 03:00:00 6.2 5 Sudeste 7 Sudeste 0 852 -- 92
2020-06-16 02:00:00 6.5 5 Noroeste 11 Noroeste 0 852.3 -- 87
2020-06-16 01:00:00 6.7 8 Noroeste 33 Noroeste 0 852.8 -- 83
2020-06-16 00:00:00 6.9 9 Noroeste 25 Oeste 0 853.1 -- 81
2020-06-15 23:00:00 7.1 10 Noroeste 27 Oeste 0 853.1 -- 83
2020-06-15 22:00:00 7.4 11 Oeste 30 Noroeste 0 852.8 -- 80
2020-06-15 21:00:00 8.2 15 Norte -- -- 0 852.9 -- 83
2020-06-15 20:00:00 9.4 -- -- -- -- 0 852.8 -- 78
2020-06-15 19:00:00 9.8 13 Noroeste 27 Noroeste 0 852.8 -- 77
2020-06-15 18:00:00 9.3 11 Noroeste 29 Noroeste 0 853.2 -- 80
2020-06-15 17:00:00 10.4 8 Sudoeste 21 Oeste 0 853.3 -- 73
2020-06-15 16:00:00 10.5 8 Noroeste 32 Norte 0 853.2 -- 79
2020-06-15 15:00:00 8.8 10 Noroeste 22 Noroeste 0 853.6 -- 83
2020-06-15 14:00:00 10 9 Noroeste 22 Noroeste 0 853.4 -- 81
2020-06-15 13:00:00 8.8 9 Noroeste 21 Noroeste 0 853.3 -- 81
2020-06-15 12:00:00 8.7 9 Noroeste 20 Oeste 0 853 -- 80
2020-06-15 11:00:00 7.4 6 Oeste 26 Oeste 0 852.8 -- 85
2020-06-15 10:00:00 6.8 6 Norte 22 Noroeste 0 852.7 -- 87
2020-06-15 09:00:00 6.6 9 Noroeste 24 Oeste 0 852.5 -- 86
2020-06-15 08:00:00 6.1 10 Noroeste 25 Oeste 0 852.3 -- 88
2020-06-15 07:00:00 5.6 8 Noroeste 18 Norte 0 852 -- 91
2020-06-15 06:00:00 5.6 6 Noroeste 15 Noroeste 0 851.6 -- 88
2020-06-15 05:00:00 5.4 9 Noroeste 34 Noroeste 0 851.9 -- 86
2020-06-15 04:00:00 5.4 11 Noroeste 27 Noroeste 0 852.1 -- 83
2020-06-15 03:00:00 5.4 8 Noroeste 26 Oeste 0 852.1 -- 84
2020-06-15 02:00:00 4.8 4 Este 33 Norte 0 852.5 -- 88
2020-06-15 01:00:00 5 14 Noroeste 32 Noroeste 0 852.7 -- 85
2020-06-15 00:00:00 5.1 11 Noroeste 20 Oeste 0 852.8 -- 89
2020-06-14 23:00:00 5.9 14 Noroeste 23 Noroeste 0 852.8 -- 89
2020-06-14 22:00:00 6.4 10 Noroeste 23 Noroeste 0 852.4 -- 92
2020-06-14 21:00:00 6.6 9 Noroeste 23 Noroeste 0 852.4 -- 92
2020-06-14 20:00:00 7.3 16 Noroeste 31 Noroeste 0 852.2 -- 89
2020-06-14 19:00:00 7.5 8 Noroeste 15 Norte 0 851.8 -- 93
2020-06-14 18:00:00 7.9 7 Norte 23 Noroeste 0 851.8 -- 89
2020-06-14 17:00:00 8.6 9 Norte 22 Noroeste 0 851.6 -- 84
2020-06-14 16:00:00 7.6 9 Noroeste 21 Oeste 0 851.8 -- 80
2020-06-14 15:00:00 7.8 6 Sudeste 15 Sudeste 0 851.6 -- 87
2020-06-14 14:00:00 7.9 9 Noroeste 23 Noroeste 0 851.6 -- 79
2020-06-14 13:00:00 7.5 8 Nordeste 24 Sudeste 0 851.3 -- 81
2020-06-14 12:00:00 7.1 7 Sudeste 15 Sudeste 0 850.8 -- 85
2020-06-14 11:00:00 7.1 6 Nordeste 20 Noroeste 0 850.5 -- 81
2020-06-14 10:00:00 5.6 4 Este 24 Sudoeste 0 850.2 -- 88
2020-06-14 09:00:00 4.5 6 Sur 21 Este 0 849.7 -- 92
2020-06-14 08:00:00 4.3 7 Sur 27 Sudoeste 0 849.3 -- 88
2020-06-14 07:00:00 4.9 10 Noroeste 23 Noroeste 0 849.1 -- 84
2020-06-14 06:00:00 3.7 4 Noroeste 13 Sudoeste 0 849 -- 89
2020-06-14 05:00:00 2.7 5 Noroeste 12 Este 0 849 -- 88
2020-06-14 04:00:00 3.1 3 Oeste 23 Oeste 0 849.2 -- 86
2020-06-14 03:00:00 4.1 8 Oeste 27 Noroeste 0 849.3 -- 83
2020-06-14 02:00:00 4.5 3 Sudoeste 9 Sudeste 0 849.6 -- 89
2020-06-14 01:00:00 4.6 3 Este 17 Oeste 0 849.5 -- 88
2020-06-14 00:00:00 5.3 10 Noroeste 27 Noroeste 0 849.4 -- 84
2020-06-13 23:00:00 5.6 13 Norte 33 Noroeste 0 849.2 -- 87
2020-06-13 22:00:00 5.6 18 Norte 38 Norte 0 848.8 -- 86
2020-06-13 21:00:00 6.5 16 Norte 36 Noroeste 0 848.2 -- 90
2020-06-13 20:00:00 6.9 14 Noroeste 30 Noroeste 0 847.9 -- 86
2020-06-13 19:00:00 7.7 13 Norte 42 Noroeste 0 847.5 -- 77
2020-06-13 18:00:00 7.7 21 Norte 48 Noroeste 0 847.2 -- 82
2020-06-13 17:00:00 7.6 20 Norte 39 Norte 0 846.9 -- 82
2020-06-13 16:00:00 6.9 19 Norte 46 Noroeste 0 846.7 -- 87
2020-06-13 15:00:00 7.1 20 Noroeste 38 Noroeste 0.4 846.4 -- 86
2020-06-13 14:00:00 7.8 16 Noroeste 35 Noroeste 0 845.8 -- 89
2020-06-13 13:00:00 6.9 13 Norte 37 Noroeste 0 845.4 -- 87
2020-06-13 12:00:00 5.9 19 Noroeste 48 Noroeste 0 845.2 -- 91
2020-06-13 11:00:00 5.4 19 Noroeste 41 Oeste 0 844.6 -- 91
2020-06-13 10:00:00 5.3 18 Noroeste 37 Noroeste 0 844.1 -- 90
2020-06-13 09:00:00 4.8 11 Noroeste 33 Noroeste 0.2 843.6 -- 91
2020-06-13 08:00:00 4.5 19 Noroeste 46 Noroeste 0 843 -- 90
2020-06-13 07:00:00 4.4 19 Noroeste 43 Noroeste 0 842.6 -- 88
2020-06-13 06:00:00 4 19 Noroeste 44 Noroeste 0 841.9 -- 92
2020-06-13 05:00:00 4.1 14 Noroeste 42 Oeste 0 841.5 -- 92
2020-06-13 04:00:00 4.1 18 Noroeste 48 Noroeste 0 841.2 -- 91
2020-06-13 03:00:00 4.1 12 Noroeste 32 Norte 0 841.1 -- 94
2020-06-13 02:00:00 4.1 10 Noroeste 29 Noroeste 0 840.9 -- 95
2020-06-13 01:00:00 4.2 15 Noroeste 37 Noroeste 0 840.9 -- 95
2020-06-13 00:00:00 4.4 14 Noroeste 36 Noroeste 0.4 840.5 -- 95
2020-06-12 23:00:00 4.4 16 Noroeste 38 Norte 0.6 840 -- 95
2020-06-12 22:00:00 4.7 8 Noroeste 33 Norte 0.4 839 -- 94
2020-06-12 21:00:00 5 15 Noroeste 38 Noroeste 0 838.7 -- 89
2020-06-12 20:00:00 5.5 14 Noroeste 29 Noroeste 0 838.1 -- 87
2020-06-12 19:00:00 6.3 15 Noroeste 30 Noroeste 0 837.7 -- 82
2020-06-12 18:00:00 6.9 14 Noroeste 26 Oeste 0.2 837.3 -- 89
2020-06-12 17:00:00 5.2 9 Noroeste 20 Norte 1.8 837.2 -- 91
2020-06-12 16:00:00 4.3 10 Norte 31 Noroeste 1.6 836.9 -- 93
2020-06-12 15:00:00 3.5 15 Noroeste 32 Norte 1.2 836.6 -- 93
2020-06-12 14:00:00 4.9 12 Noroeste 32 Oeste 0.4 836 -- 93
2020-06-12 13:00:00 4 12 Oeste 30 Oeste 2.4 835.5 -- 86
2020-06-12 12:00:00 3.4 9 Sur 49 Oeste 0.8 835.2 -- 89
2020-06-12 11:00:00 3.9 14 Noroeste 36 Oeste 0 834.9 -- 88
2020-06-12 10:00:00 3.4 11 Oeste 31 Noroeste 0 834.9 -- 90
2020-06-12 09:00:00 2.6 14 Noroeste 31 Noroeste 0 834.7 -- 93
2020-06-12 08:00:00 2.1 12 Noroeste 28 Noroeste 0 834.6 -- 94
2020-06-12 07:00:00 1.9 22 Noroeste 39 Noroeste 0 834.3 -- 94
2020-06-12 06:00:00 2 21 Noroeste 52 Norte 0 834 -- 95
2020-06-12 05:00:00 2.3 28 Noroeste 53 Norte 0.2 833.8 -- 95
2020-06-12 04:00:00 2.8 37 Noroeste 54 Noroeste 1 833.7 -- 95
2020-06-12 03:00:00 3.7 32 Noroeste 63 Noroeste 0.2 833.7 -- 91
2020-06-12 02:00:00 4.1 21 Noroeste 60 Noroeste 1.8 834 -- 90
2020-06-12 01:00:00 3.5 26 Noroeste 77 Noroeste 2 834.4 -- 88
2020-06-12 00:00:00 3.6 30 Noroeste 74 Noroeste 0.6 834.7 -- 87
2020-06-11 23:00:00 3.4 36 Noroeste 78 Noroeste 0 835.5 -- 87
2020-06-11 22:00:00 2.9 22 Noroeste 54 Noroeste 0 835.9 -- 90
2020-06-11 21:00:00 2.7 16 Noroeste 39 Norte 0.2 836.7 -- 88
2020-06-11 20:00:00 3.1 18 Noroeste 36 Noroeste 0 837.1 -- 86
2020-06-11 19:00:00 2.7 14 Noroeste 53 Noroeste 1.4 837.6 -- 90
2020-06-11 18:00:00 4 20 Noroeste 49 Noroeste 0 837.6 -- 84
2020-06-11 17:00:00 3.6 20 Noroeste 41 Noroeste 0.6 838.1 -- 91
2020-06-11 16:00:00 4.9 19 Noroeste 47 Norte 0.2 838.1 -- 92
2020-06-11 15:00:00 6 17 Noroeste 38 Noroeste 0 838.6 -- 85
2020-06-11 14:00:00 5.3 17 Noroeste 41 Noroeste 0 839.3 -- 96
2020-06-11 13:00:00 5.2 24 Noroeste 46 Norte 1.4 839.5 -- 95
2020-06-11 12:00:00 7.4 18 Noroeste 32 Noroeste 0 839.4 -- 90
2020-06-11 11:00:00 7.2 15 Noroeste 30 Norte 0 839.9 -- 94
2020-06-11 10:00:00 6.7 16 Noroeste 36 Noroeste 0.2 840.4 -- 95
2020-06-11 09:00:00 6.6 19 Noroeste 34 Noroeste 0 840.8 -- 95
2020-06-11 08:00:00 6.6 12 Noroeste 26 Noroeste 0 841.4 -- 95
2020-06-11 07:00:00 6.6 13 Noroeste 33 Noroeste 0 841.9 -- 94
2020-06-11 06:00:00 6.9 12 Noroeste 31 Noroeste 0 842.5 -- 93
2020-06-11 05:00:00 6.5 6 Norte 18 Noroeste 0 843.2 -- 93
2020-06-11 04:00:00 6.3 5 Norte 11 Norte 0 843.7 -- 89
2020-06-11 03:00:00 6.1 5 Noroeste 12 Noroeste 0 844.6 -- 86
2020-06-11 02:00:00 5.7 5 Noroeste 9 Noroeste 0 845.6 -- 91
2020-06-11 01:00:00 5.7 0 Calma 7 Sur 0 846.3 -- 91
2020-06-11 00:00:00 6.7 0 Calma 13 Norte 0 846.7 -- 93
2020-06-10 23:00:00 7.4 11 Norte 15 Norte 0 847 -- 95
2020-06-10 22:00:00 7.8 10 Noroeste 22 Noroeste 0 847 -- 95
2020-06-10 21:00:00 8.3 13 Noroeste 22 Noroeste 0 847.2 -- 93
2020-06-10 20:00:00 9.5 14 Noroeste 24 Noroeste 0 847.3 -- 89
2020-06-10 19:00:00 10.3 14 Noroeste 29 Noroeste 0 847.5 -- 84
2020-06-10 18:00:00 12.3 22 Noroeste 32 Noroeste 0 847.7 -- 76
2020-06-10 17:00:00 11.3 20 Noroeste 30 Noroeste 0 848.2 -- 80
2020-06-10 16:00:00 12.1 19 Noroeste 34 Oeste 0 848.4 -- 72
2020-06-10 15:00:00 13.4 18 Noroeste 29 Noroeste 0 848.6 -- 71
2020-06-10 14:00:00 12.5 14 Noroeste 25 Noroeste 0 848.8 -- 75
2020-06-10 13:00:00 11.8 17 Noroeste 26 Noroeste 0 849.4 -- 78
2020-06-10 12:00:00 10 15 Noroeste 28 Noroeste 0 849.2 -- 84
2020-06-10 11:00:00 10.3 13 Noroeste 19 Sudeste 0 849.3 -- 83
2020-06-10 10:00:00 9.5 10 Sudeste 15 Sudeste 0 849.4 -- 77
2020-06-10 09:00:00 6.9 9 Sudeste 13 Sudeste 0 849.5 -- 86
2020-06-10 08:00:00 3.3 8 Sudeste 10 Sudeste 0 849.6 -- 94
2020-06-10 07:00:00 3.1 6 Sudeste 11 Sudeste 0 849.5 -- 94
2020-06-10 06:00:00 3.6 6 Sudeste 10 Sudeste 0 849.4 -- 95
2020-06-10 05:00:00 4.3 7 Sudeste 16 Sur 0 849.6 -- 95
2020-06-10 04:00:00 5 9 Sudeste 14 Sudeste 0 849.9 -- 95
2020-06-10 03:00:00 4.7 7 Sudeste 12 Este 0 850.4 -- 95
2020-06-10 02:00:00 5.1 4 Sur 12 Este 0 850.6 -- 94
2020-06-10 01:00:00 5.5 8 Sudeste 13 Sudeste 0 850.9 -- 95
2020-06-10 00:00:00 5.8 5 Sudeste 13 Noroeste 0 851.3 -- 96